ROU2050 CYUL-CYHZ
Flight info
| Callsign | ROU2050 |
|---|---|
| Flight time | N/A |
| Altitude | 35000 |
| Route | SUXET DCT NOVUN DCT ESRAM DCT RABIK Q951 ANTOV DCT EBONY FUNDY5 |
| Aircraft | A321/M-SDE3FGHIRWY/LB1 |
Departure
| Time | 2026-05-07 23:03 |
|---|---|
| Airport | Montreal / Pierre Elliott Trudeau International Airport (CYUL) |
Arrival
| Time | N/A |
|---|---|
| Airport | Halifax / Stanfield International Airport (CYHZ) |
| Time | Latitude | Longitude | Altitude | Speed | Heading |
|---|---|---|---|---|---|
| 2026-05-07 22:53 | 45.45890 | -73.74492 | 105 ft | 0 kts | 178° |
| 2026-05-07 22:54 | 45.45893 | -73.74492 | 105 ft | 3 kts | 178° |
| 2026-05-07 22:54 | 45.45912 | -73.74493 | 103 ft | 3 kts | 178° |
| 2026-05-07 22:55 | 45.45930 | -73.74497 | 105 ft | 3 kts | 132° |
| 2026-05-07 22:55 | 45.45937 | -73.74516 | 103 ft | 0 kts | 97° |
| 2026-05-07 22:56 | 45.45934 | -73.74462 | 105 ft | 15 kts | 94° |
| 2026-05-07 22:56 | 45.45963 | -73.74301 | 103 ft | 18 kts | 58° |
| 2026-05-07 22:56 | 45.46055 | -73.74163 | 103 ft | 20 kts | 43° |
| 2026-05-07 22:57 | 45.46156 | -73.74033 | 105 ft | 20 kts | 42° |
| 2026-05-07 22:57 | 45.46262 | -73.73897 | 105 ft | 21 kts | 43° |
| 2026-05-07 22:57 | 45.46370 | -73.73755 | 107 ft | 22 kts | 43° |
| 2026-05-07 22:57 | 45.46548 | -73.73524 | 110 ft | 52 kts | 43° |
| 2026-05-07 22:58 | 45.46834 | -73.73149 | 114 ft | 52 kts | 43° |
| 2026-05-07 22:58 | 45.47030 | -73.72893 | 116 ft | 37 kts | 41° |
| 2026-05-07 22:58 | 45.47213 | -73.72651 | 115 ft | 35 kts | 43° |
| 2026-05-07 22:58 | 45.47341 | -73.72480 | 119 ft | 22 kts | 42° |
| 2026-05-07 22:59 | 45.47450 | -73.72340 | 119 ft | 20 kts | 42° |
| 2026-05-07 22:59 | 45.47548 | -73.72211 | 119 ft | 18 kts | 43° |
| 2026-05-07 22:59 | 45.47638 | -73.72093 | 119 ft | 17 kts | 43° |
| 2026-05-07 22:59 | 45.47719 | -73.71988 | 117 ft | 15 kts | 43° |
| 2026-05-07 23:00 | 45.47790 | -73.71893 | 119 ft | 13 kts | 45° |
| 2026-05-07 23:00 | 45.47799 | -73.71784 | 123 ft | 10 kts | 110° |
| 2026-05-07 23:00 | 45.47776 | -73.71743 | 123 ft | 0 kts | 133° |
| 2026-05-07 23:02 | 45.47772 | -73.71738 | 123 ft | 4 kts | 133° |
| 2026-05-07 23:02 | 45.47674 | -73.71669 | 123 ft | 22 kts | 192° |
| 2026-05-07 23:02 | 45.47523 | -73.71838 | 121 ft | 51 kts | 223° |
| 2026-05-07 23:03 | 45.47040 | -73.72472 | 116 ft | 133 kts | 222° |
| 2026-05-07 23:03 | 45.46233 | -73.73565 | 318 ft | 176 kts | 232° |
| 2026-05-07 23:03 | 45.45317 | -73.74769 | 1277 ft | 179 kts | 223° |
| 2026-05-07 23:03 | 45.44241 | -73.75711 | 2176 ft | 196 kts | 204° |
| 2026-05-07 23:04 | 45.42769 | -73.75635 | 2769 ft | 237 kts | 162° |
| 2026-05-07 23:04 | 45.41346 | -73.74045 | 2978 ft | 287 kts | 127° |
| 2026-05-07 23:04 | 45.40546 | -73.71468 | 3006 ft | 282 kts | 108° |
| 2026-05-07 23:04 | 45.39995 | -73.68798 | 3007 ft | 280 kts | 108° |
| 2026-05-07 23:05 | 45.39445 | -73.66128 | 3007 ft | 280 kts | 107° |
| 2026-05-07 23:05 | 45.38896 | -73.63462 | 3059 ft | 283 kts | 107° |
| 2026-05-07 23:05 | 45.38334 | -73.60762 | 3898 ft | 283 kts | 109° |
| 2026-05-07 23:05 | 45.37574 | -73.58182 | 4789 ft | 283 kts | 118° |
| 2026-05-07 23:06 | 45.36621 | -73.55711 | 5601 ft | 286 kts | 122° |
| 2026-05-07 23:06 | 45.35582 | -73.53273 | 6385 ft | 290 kts | 124° |
| 2026-05-07 23:06 | 45.34526 | -73.50849 | 7135 ft | 293 kts | 123° |
| 2026-05-07 23:06 | 45.33454 | -73.48355 | 7896 ft | 296 kts | 123° |
| 2026-05-07 23:07 | 45.32389 | -73.45824 | 8662 ft | 300 kts | 122° |
| 2026-05-07 23:07 | 45.31328 | -73.43258 | 9444 ft | 303 kts | 122° |
| 2026-05-07 23:07 | 45.30266 | -73.40657 | 10139 ft | 306 kts | 121° |
| 2026-05-07 23:07 | 45.29167 | -73.37955 | 10397 ft | 327 kts | 121° |
| 2026-05-07 23:08 | 45.27993 | -73.35063 | 10536 ft | 349 kts | 121° |
| 2026-05-07 23:08 | 45.27178 | -73.33051 | 10766 ft | 357 kts | 121° |
| 2026-05-07 23:08 | 45.25927 | -73.29964 | 11333 ft | 363 kts | 122° |
| 2026-05-07 23:08 | 45.24657 | -73.26837 | 11963 ft | 368 kts | 122° |
| 2026-05-07 23:09 | 45.23369 | -73.23673 | 12585 ft | 372 kts | 122° |
| 2026-05-07 23:09 | 45.22091 | -73.20455 | 13169 ft | 378 kts | 118° |
| 2026-05-07 23:09 | 45.21137 | -73.16943 | 13721 ft | 385 kts | 107° |
| 2026-05-07 23:09 | 45.20659 | -73.13192 | 14220 ft | 390 kts | 95° |
| 2026-05-07 23:10 | 45.20662 | -73.09324 | 14709 ft | 395 kts | 87° |
| 2026-05-07 23:10 | 45.20782 | -73.05416 | 15202 ft | 399 kts | 88° |
| 2026-05-07 23:10 | 45.21073 | -73.01495 | 15675 ft | 402 kts | 78° |
| 2026-05-07 23:10 | 45.21836 | -72.97666 | 16148 ft | 405 kts | 67° |
| 2026-05-07 23:11 | 45.23054 | -72.94059 | 16596 ft | 406 kts | 57° |
| 2026-05-07 23:11 | 45.24461 | -72.90557 | 17077 ft | 410 kts | 57° |
| 2026-05-07 23:11 | 45.25874 | -72.87025 | 17542 ft | 414 kts | 58° |
| 2026-05-07 23:11 | 45.27297 | -72.83441 | 18021 ft | 418 kts | 58° |
| 2026-05-07 23:12 | 45.28495 | -72.79656 | 18429 ft | 424 kts | 70° |
| 2026-05-07 23:12 | 45.29229 | -72.75586 | 18798 ft | 428 kts | 81° |
| 2026-05-07 23:12 | 45.29499 | -72.71348 | 19115 ft | 433 kts | 88° |
| 2026-05-07 23:12 | 45.29654 | -72.67050 | 19467 ft | 437 kts | 88° |
| 2026-05-07 23:13 | 45.29814 | -72.62729 | 19821 ft | 440 kts | 88° |
| 2026-05-07 23:13 | 45.29984 | -72.58435 | 20156 ft | 443 kts | 87° |
| 2026-05-07 23:13 | 45.30202 | -72.54065 | 20513 ft | 445 kts | 86° |
| 2026-05-07 23:13 | 45.30455 | -72.49668 | 20865 ft | 448 kts | 86° |
| 2026-05-07 23:14 | 45.30723 | -72.45247 | 21213 ft | 451 kts | 86° |
| 2026-05-07 23:14 | 45.30994 | -72.40793 | 21554 ft | 453 kts | 86° |
| 2026-05-07 23:14 | 45.31257 | -72.36312 | 21895 ft | 456 kts | 86° |
| 2026-05-07 23:14 | 45.31509 | -72.31812 | 22183 ft | 460 kts | 87° |
| 2026-05-07 23:15 | 45.31754 | -72.27257 | 22468 ft | 464 kts | 87° |
| 2026-05-07 23:15 | 45.31995 | -72.22672 | 22800 ft | 467 kts | 87° |
| 2026-05-07 23:15 | 45.32234 | -72.18056 | 23114 ft | 470 kts | 87° |
| 2026-05-07 23:15 | 45.32472 | -72.13413 | 23450 ft | 473 kts | 88° |
| 2026-05-07 23:16 | 45.32710 | -72.08749 | 23723 ft | 475 kts | 88° |
| 2026-05-07 23:16 | 45.32948 | -72.04049 | 23990 ft | 478 kts | 88° |
| 2026-05-07 23:16 | 45.33185 | -71.99323 | 24260 ft | 480 kts | 88° |
| 2026-05-07 23:16 | 45.33422 | -71.94575 | 24530 ft | 483 kts | 88° |
| 2026-05-07 23:17 | 45.33661 | -71.89796 | 24757 ft | 486 kts | 88° |
| 2026-05-07 23:17 | 45.33922 | -71.84983 | 24962 ft | 491 kts | 87° |
| 2026-05-07 23:17 | 45.34315 | -71.80146 | 25213 ft | 494 kts | 84° |